createdAt,value
2023-04-27T00:00:56.728Z,4.30
2023-04-27T00:01:56.750Z,4.00
2023-04-27T00:02:57.076Z,4.40
2023-04-27T00:03:56.796Z,4.10
2023-04-27T00:04:56.910Z,4.20
2023-04-27T00:05:56.916Z,4.20
2023-04-27T00:06:56.673Z,4.70
2023-04-27T00:07:56.657Z,4.40
2023-04-27T00:08:56.649Z,4.50
2023-04-27T00:09:56.650Z,4.30
2023-04-27T00:10:56.629Z,4.70
2023-04-27T00:11:56.606Z,4.40
2023-04-27T00:12:56.638Z,4.40
2023-04-27T00:13:56.611Z,4.60
2023-04-27T00:14:56.625Z,4.30
2023-04-27T00:15:56.617Z,4.30
2023-04-27T00:16:56.583Z,4.20
2023-04-27T00:17:56.571Z,4.20
2023-04-27T00:18:56.595Z,4.60
2023-04-27T00:19:56.537Z,4.10
2023-04-27T00:20:56.608Z,4.30
2023-04-27T00:21:56.500Z,4.10
2023-04-27T00:22:56.501Z,4.10
2023-04-27T00:23:56.502Z,4.30
2023-04-27T00:24:56.641Z,3.80
2023-04-27T00:25:56.463Z,3.90
2023-04-27T00:26:56.466Z,4.30
2023-04-27T00:27:56.441Z,4.00
2023-04-27T00:28:56.434Z,4.40
2023-04-27T00:29:56.525Z,4.10
2023-04-27T00:30:56.419Z,4.30
2023-04-27T00:31:56.445Z,4.30
2023-04-27T00:32:56.444Z,4.10
2023-04-27T00:33:56.370Z,4.40
2023-04-27T00:34:56.387Z,4.50
2023-04-27T00:35:56.372Z,5.30
2023-04-27T00:36:56.346Z,4.80
2023-04-27T00:37:56.349Z,4.30
2023-04-27T00:38:56.341Z,4.80
2023-04-27T00:39:56.329Z,5.00
2023-04-27T00:40:56.301Z,4.60
2023-04-27T00:41:56.310Z,5.00
2023-04-27T00:42:56.292Z,4.70
2023-04-27T00:43:56.272Z,4.30
2023-04-27T00:44:56.270Z,4.10
2023-04-27T00:45:56.286Z,4.50
2023-04-27T00:46:56.266Z,4.90
2023-04-27T00:47:56.301Z,4.40
2023-04-27T00:48:56.234Z,4.40
2023-04-27T00:49:56.225Z,4.30
2023-04-27T00:50:56.283Z,4.20
2023-04-27T00:51:56.182Z,4.40
2023-04-27T00:52:56.188Z,4.70
2023-04-27T00:53:56.185Z,4.30
2023-04-27T00:54:56.174Z,4.70
2023-04-27T00:55:56.144Z,4.20
2023-04-27T00:56:56.140Z,4.10
2023-04-27T00:57:56.133Z,4.40
2023-04-27T00:58:56.159Z,4.40
2023-04-27T00:59:56.124Z,4.50
2023-04-27T01:00:56.131Z,4.50
2023-04-27T01:01:56.106Z,4.50
2023-04-27T01:02:56.215Z,4.70
2023-04-27T01:03:56.235Z,4.80
2023-04-27T01:04:56.076Z,4.60
2023-04-27T01:05:56.035Z,4.40
2023-04-27T01:06:56.017Z,4.90
2023-04-27T01:07:56.057Z,4.80
2023-04-27T01:08:56.002Z,4.60
2023-04-27T01:09:56.006Z,4.60
2023-04-27T01:10:56.017Z,4.80
2023-04-27T01:11:55.983Z,4.80
2023-04-27T01:12:55.969Z,4.70
2023-04-27T01:13:55.968Z,4.50
2023-04-27T01:14:55.962Z,4.70
2023-04-27T01:15:55.925Z,4.90
2023-04-27T01:16:55.981Z,4.60
2023-04-27T01:17:55.958Z,4.90
2023-04-27T01:18:55.908Z,5.10
2023-04-27T01:19:55.910Z,4.50
2023-04-27T01:20:55.887Z,4.80
2023-04-27T01:21:55.864Z,4.70
2023-04-27T01:22:55.859Z,4.60
2023-04-27T01:23:55.858Z,4.90
2023-04-27T01:24:55.857Z,4.80
2023-04-27T01:25:55.819Z,4.90
2023-04-27T01:26:55.818Z,4.80
2023-04-27T01:27:55.811Z,4.90
2023-04-27T01:28:55.821Z,4.60
2023-04-27T01:29:55.812Z,4.80
2023-04-27T01:30:55.802Z,4.40
2023-04-27T01:31:55.770Z,4.60
2023-04-27T01:32:55.861Z,4.80
2023-04-27T01:33:55.732Z,5.00
2023-04-27T01:34:55.781Z,4.60
2023-04-27T01:35:55.766Z,4.70
2023-04-27T01:36:55.720Z,4.70
2023-04-27T01:37:55.691Z,5.20
2023-04-27T01:38:55.696Z,5.20
2023-04-27T01:39:55.683Z,5.00
2023-04-27T01:40:55.679Z,5.10
2023-04-27T01:41:57.857Z,4.30
2023-04-27T01:42:55.659Z,4.90
2023-04-27T01:43:55.675Z,4.90
2023-04-27T01:44:55.654Z,4.70
2023-04-27T01:45:55.646Z,4.90
2023-04-27T01:46:55.608Z,4.80
2023-04-27T01:47:55.643Z,5.30
2023-04-27T01:48:55.580Z,4.80
2023-04-27T01:49:55.712Z,4.90
2023-04-27T01:50:55.568Z,4.60
2023-04-27T01:51:55.546Z,5.30
2023-04-27T01:52:55.540Z,5.00
2023-04-27T01:53:55.529Z,4.80
2023-04-27T01:54:55.541Z,5.00
2023-04-27T01:55:55.592Z,4.80
2023-04-27T01:56:55.514Z,4.70
2023-04-27T01:57:55.478Z,4.90
2023-04-27T01:58:55.526Z,4.80
2023-04-27T01:59:55.469Z,5.30
2023-04-27T02:00:55.464Z,5.00
2023-04-27T02:01:55.531Z,5.10
2023-04-27T02:02:55.559Z,5.00
2023-04-27T02:03:55.625Z,5.10
2023-04-27T02:04:55.589Z,5.30
2023-04-27T02:05:55.453Z,4.80
2023-04-27T02:06:55.388Z,5.20
2023-04-27T02:07:55.386Z,5.20
2023-04-27T02:08:55.373Z,6.00
2023-04-27T02:09:55.370Z,5.40
2023-04-27T02:10:55.349Z,5.20
2023-04-27T02:11:55.340Z,4.70
2023-04-27T02:12:55.330Z,6.00
2023-04-27T02:13:55.313Z,5.60
2023-04-27T02:14:55.361Z,5.60
2023-04-27T02:15:55.353Z,4.90
2023-04-27T02:16:55.287Z,5.30
2023-04-27T02:17:55.343Z,5.30
2023-04-27T02:18:55.263Z,5.40
2023-04-27T02:19:55.287Z,5.60
2023-04-27T02:20:55.244Z,5.10
2023-04-27T02:21:55.227Z,5.10
2023-04-27T02:22:55.224Z,5.40
2023-04-27T02:23:55.211Z,5.30
2023-04-27T02:24:55.206Z,5.20
2023-04-27T02:25:55.207Z,5.40
2023-04-27T02:26:55.192Z,5.40
2023-04-27T02:27:55.181Z,5.90
2023-04-27T02:28:55.204Z,5.40
2023-04-27T02:29:55.168Z,5.50
2023-04-27T02:30:55.144Z,5.70
2023-04-27T02:31:55.188Z,5.40
2023-04-27T02:32:55.133Z,5.40
2023-04-27T02:33:55.157Z,5.80
2023-04-27T02:34:55.150Z,5.60
2023-04-27T02:35:55.077Z,5.90
2023-04-27T02:36:55.072Z,5.50
2023-04-27T02:37:55.112Z,5.50
2023-04-27T02:38:55.078Z,5.90
2023-04-27T02:39:55.043Z,5.20
2023-04-27T02:40:55.062Z,5.50
2023-04-27T02:41:55.042Z,6.00
2023-04-27T02:42:55.021Z,5.50
2023-04-27T02:43:54.997Z,5.90
2023-04-27T02:44:55.001Z,6.30
2023-04-27T02:45:55.019Z,6.00
2023-04-27T02:46:55.083Z,5.90
2023-04-27T02:47:54.992Z,5.70
2023-04-27T02:48:54.976Z,6.10
2023-04-27T02:49:54.949Z,5.80
2023-04-27T02:50:54.916Z,5.80
2023-04-27T02:51:54.946Z,6.20
2023-04-27T02:52:54.909Z,5.70
2023-04-27T02:53:54.893Z,5.70
2023-04-27T02:54:54.900Z,6.00
2023-04-27T02:55:54.926Z,6.20
2023-04-27T02:56:54.881Z,5.70
2023-04-27T02:57:54.839Z,6.60
2023-04-27T02:58:54.820Z,5.50
2023-04-27T02:59:54.840Z,6.00
2023-04-27T03:00:54.814Z,6.60
2023-04-27T03:01:54.795Z,6.00
2023-04-27T03:02:54.849Z,6.20
2023-04-27T03:03:54.976Z,6.20
2023-04-27T03:04:54.785Z,6.50
2023-04-27T03:05:54.773Z,6.40
2023-04-27T03:06:54.763Z,5.80
2023-04-27T03:07:54.740Z,5.80
2023-04-27T03:08:54.744Z,6.00
2023-04-27T03:09:54.725Z,6.70
2023-04-27T03:10:54.736Z,6.60
2023-04-27T03:11:54.698Z,6.60
2023-04-27T03:12:54.688Z,6.00
2023-04-27T03:13:54.673Z,6.10
2023-04-27T03:14:54.666Z,7.10
2023-04-27T03:15:54.707Z,6.50
2023-04-27T03:16:54.690Z,6.50
2023-04-27T03:17:54.698Z,6.10
2023-04-27T03:18:54.610Z,6.30
2023-04-27T03:19:54.616Z,6.30
2023-04-27T03:20:54.598Z,6.30
2023-04-27T03:21:54.587Z,6.40
2023-04-27T03:22:54.569Z,6.50
2023-04-27T03:23:54.570Z,6.50
2023-04-27T03:24:54.576Z,6.30
2023-04-27T03:25:54.560Z,6.60
2023-04-27T03:26:54.532Z,6.70
2023-04-27T03:27:54.602Z,6.10
2023-04-27T03:28:54.506Z,6.50
2023-04-27T03:29:54.526Z,6.80
2023-04-27T03:30:54.502Z,5.80
2023-04-27T03:31:54.592Z,6.60
2023-04-27T03:32:54.527Z,6.80
2023-04-27T03:33:54.469Z,6.60
2023-04-27T03:34:54.453Z,6.50
2023-04-27T03:35:54.451Z,6.80
2023-04-27T03:36:54.570Z,6.60
2023-04-27T03:37:54.440Z,7.00
2023-04-27T03:38:54.414Z,6.30
2023-04-27T03:39:54.401Z,6.70
2023-04-27T03:40:54.393Z,6.60
2023-04-27T03:41:54.371Z,7.20
2023-04-27T03:42:54.358Z,6.50
2023-04-27T03:43:54.375Z,7.00
2023-04-27T03:44:54.423Z,6.50
2023-04-27T03:45:54.355Z,7.10
2023-04-27T03:46:54.328Z,7.30
2023-04-27T03:47:54.369Z,6.90
2023-04-27T03:48:54.420Z,7.00
2023-04-27T03:49:54.297Z,7.30
2023-04-27T03:50:54.285Z,6.60
2023-04-27T03:51:54.260Z,7.10
2023-04-27T03:52:54.255Z,6.80
2023-04-27T03:53:54.245Z,7.10
2023-04-27T03:54:54.243Z,7.40
2023-04-27T03:55:54.234Z,7.40
2023-04-27T03:56:54.241Z,7.10
2023-04-27T03:57:54.207Z,7.10
2023-04-27T03:58:54.204Z,7.40
2023-04-27T03:59:54.195Z,6.80
2023-04-27T04:00:54.180Z,7.10
2023-04-27T04:01:54.174Z,7.50
2023-04-27T04:02:54.303Z,7.30
2023-04-27T04:03:54.363Z,7.30
2023-04-27T04:04:54.314Z,7.40
2023-04-27T04:05:54.122Z,7.00
2023-04-27T04:06:54.100Z,7.80
2023-04-27T04:07:54.098Z,8.20
2023-04-27T04:08:54.094Z,7.70
2023-04-27T04:09:54.093Z,8.00
2023-04-27T04:10:54.076Z,8.10
2023-04-27T04:11:54.057Z,7.70
2023-04-27T04:12:54.045Z,7.40
2023-04-27T04:13:54.029Z,7.80
2023-04-27T04:14:54.048Z,8.00
2023-04-27T04:15:54.060Z,7.60
2023-04-27T04:16:54.018Z,7.80
2023-04-27T04:17:54.038Z,8.00
2023-04-27T04:18:53.981Z,8.00
2023-04-27T04:19:54.011Z,8.10
2023-04-27T04:20:53.961Z,8.30
2023-04-27T04:21:53.966Z,8.00
2023-04-27T04:22:53.951Z,8.30
2023-04-27T04:23:53.958Z,7.40
2023-04-27T04:24:53.910Z,8.40
2023-04-27T04:25:53.926Z,8.20
2023-04-27T04:26:53.912Z,7.80
2023-04-27T04:27:53.897Z,8.20
2023-04-27T04:28:53.875Z,7.80
2023-04-27T04:29:53.874Z,7.90
2023-04-27T04:30:53.850Z,8.70
2023-04-27T04:31:53.844Z,7.90
2023-04-27T04:32:53.990Z,8.80
2023-04-27T04:33:53.811Z,8.20
2023-04-27T04:34:53.831Z,7.80
2023-04-27T04:35:53.809Z,8.40
2023-04-27T04:36:53.786Z,8.40
2023-04-27T04:37:53.764Z,8.40
2023-04-27T04:38:53.774Z,7.70
2023-04-27T04:39:53.816Z,8.10
2023-04-27T04:40:53.775Z,8.80
2023-04-27T04:41:53.779Z,7.80
2023-04-27T04:42:53.720Z,8.60
2023-04-27T04:43:53.705Z,8.00
2023-04-27T04:44:53.711Z,7.40
2023-04-27T04:45:53.678Z,8.60
2023-04-27T04:46:53.757Z,7.80
2023-04-27T04:47:53.719Z,8.30
2023-04-27T04:48:54.869Z,8.10
2023-04-27T04:49:53.669Z,9.10
2023-04-27T04:50:53.636Z,8.10
2023-04-27T04:51:53.615Z,8.10
2023-04-27T04:52:53.618Z,8.40
2023-04-27T04:53:53.593Z,8.80
2023-04-27T04:54:53.607Z,8.50
2023-04-27T04:55:53.579Z,8.60
2023-04-27T04:56:53.574Z,8.50
2023-04-27T04:57:53.576Z,8.50
2023-04-27T04:58:53.550Z,8.80
2023-04-27T04:59:53.587Z,8.50
2023-04-27T05:00:53.531Z,9.10
2023-04-27T05:01:53.543Z,8.90
2023-04-27T05:02:53.711Z,9.30
2023-04-27T05:03:53.621Z,8.30
2023-04-27T05:04:53.535Z,9.00
2023-04-27T05:05:53.554Z,8.50
2023-04-27T05:06:53.466Z,8.60
2023-04-27T05:07:53.444Z,8.60
2023-04-27T05:08:53.451Z,8.50
2023-04-27T05:09:53.501Z,8.10
2023-04-27T05:10:53.480Z,9.00
2023-04-27T05:11:53.405Z,8.60
2023-04-27T05:12:53.407Z,9.00
2023-04-27T05:13:53.450Z,8.70
2023-04-27T05:14:53.397Z,9.00
2023-04-27T05:15:53.367Z,8.70
2023-04-27T05:16:53.362Z,9.20
2023-04-27T05:17:53.359Z,8.80
2023-04-27T05:18:53.336Z,8.60
2023-04-27T05:19:53.357Z,8.70
2023-04-27T05:20:53.349Z,9.20
2023-04-27T05:21:53.293Z,9.40
2023-04-27T05:22:53.290Z,9.30
2023-04-27T05:23:53.331Z,8.80
2023-04-27T05:24:53.300Z,8.90
2023-04-27T05:25:53.270Z,9.00
2023-04-27T05:26:53.258Z,9.10
2023-04-27T05:27:53.233Z,9.00
2023-04-27T05:28:53.232Z,8.70
2023-04-27T05:29:53.233Z,8.90
2023-04-27T05:30:53.204Z,8.70
2023-04-27T05:31:53.224Z,8.70
2023-04-27T05:32:53.226Z,9.50
2023-04-27T05:33:53.178Z,9.20
2023-04-27T05:34:53.172Z,9.00
2023-04-27T05:35:53.262Z,8.50
2023-04-27T05:36:53.140Z,9.10
2023-04-27T05:37:53.130Z,8.90
2023-04-27T05:38:53.125Z,8.80
2023-04-27T05:39:53.123Z,8.70
2023-04-27T05:40:55.077Z,9.10
2023-04-27T05:41:53.087Z,9.40
2023-04-27T05:42:53.134Z,9.20
2023-04-27T05:43:53.063Z,8.80
2023-04-27T05:44:53.087Z,9.30
2023-04-27T05:45:53.096Z,9.70
2023-04-27T05:46:53.037Z,9.10
2023-04-27T05:47:53.095Z,9.40
2023-04-27T05:48:53.032Z,9.00
2023-04-27T05:49:53.086Z,9.20
2023-04-27T05:50:52.996Z,8.70
2023-04-27T05:51:53.008Z,8.90
2023-04-27T05:52:52.988Z,9.10
2023-04-27T05:53:52.977Z,9.00
2023-04-27T05:54:52.963Z,9.40
2023-04-27T05:55:52.940Z,8.60
2023-04-27T05:56:52.976Z,9.60
2023-04-27T05:58:06.616Z,8.80
2023-04-27T05:58:53.918Z,8.80
2023-04-27T05:59:52.900Z,8.30
2023-04-27T06:00:52.911Z,8.60
2023-04-27T06:01:52.910Z,8.40
2023-04-27T06:02:53.029Z,8.20
2023-04-27T06:03:53.040Z,8.60
2023-04-27T06:04:52.915Z,8.90
2023-04-27T06:05:52.961Z,8.60
2023-04-27T06:06:52.833Z,8.60
2023-04-27T06:07:52.804Z,8.50
2023-04-27T06:08:52.797Z,9.20
2023-04-27T06:09:52.795Z,8.60
2023-04-27T06:10:52.767Z,11.90
2023-04-27T06:11:52.761Z,8.60
2023-04-27T06:12:52.765Z,8.10
2023-04-27T06:13:52.827Z,9.40
2023-04-27T06:14:52.750Z,8.70
2023-04-27T06:15:52.739Z,9.10
2023-04-27T06:16:52.716Z,8.50
2023-04-27T06:17:52.931Z,8.60
2023-04-27T06:18:52.693Z,8.80
2023-04-27T06:19:52.739Z,8.60
2023-04-27T06:20:52.670Z,8.70
2023-04-27T06:21:52.658Z,8.20
2023-04-27T06:22:52.678Z,8.40
2023-04-27T06:23:52.669Z,8.40
2023-04-27T06:24:52.671Z,9.20
2023-04-27T06:25:52.652Z,8.30
2023-04-27T06:26:52.622Z,8.60
2023-04-27T06:27:52.585Z,7.80
2023-04-27T06:28:52.586Z,7.70
2023-04-27T06:29:52.579Z,8.50
2023-04-27T06:30:52.561Z,7.70
2023-04-27T06:31:52.621Z,8.90
2023-04-27T06:32:52.669Z,8.10
2023-04-27T06:33:52.536Z,8.30
2023-04-27T06:34:52.538Z,8.10
2023-04-27T06:35:52.509Z,7.50
2023-04-27T06:36:52.492Z,7.90
2023-04-27T06:37:52.790Z,7.80
2023-04-27T06:38:52.466Z,7.80
2023-04-27T06:39:52.465Z,7.80
2023-04-27T06:40:52.479Z,7.70
2023-04-27T06:41:52.467Z,8.40
2023-04-27T06:42:52.443Z,7.80
2023-04-27T06:43:53.367Z,7.70
2023-04-27T06:44:52.461Z,7.70
2023-04-27T06:45:52.403Z,7.90
2023-04-27T06:46:52.382Z,7.40
2023-04-27T06:47:52.484Z,7.60
2023-04-27T06:48:52.357Z,7.70
2023-04-27T06:49:52.375Z,7.60
2023-04-27T06:50:52.363Z,8.20
2023-04-27T06:51:52.530Z,7.40
2023-04-27T06:52:52.315Z,7.70
2023-04-27T06:53:53.100Z,8.10
2023-04-27T06:54:52.307Z,7.80
2023-04-27T06:55:52.301Z,7.30
2023-04-27T06:56:52.314Z,7.40
2023-04-27T06:57:52.269Z,8.60
2023-04-27T06:58:52.250Z,8.10
2023-04-27T06:59:52.256Z,7.70
2023-04-27T07:00:52.265Z,8.00
2023-04-27T07:01:52.434Z,7.70
2023-04-27T07:02:52.310Z,7.60
2023-04-27T07:03:52.294Z,7.50
2023-04-27T07:04:52.531Z,8.10
2023-04-27T07:05:52.175Z,7.70
2023-04-27T07:06:52.169Z,8.00
2023-04-27T07:07:52.166Z,8.20
2023-04-27T07:08:52.148Z,6.90
2023-04-27T07:09:52.136Z,7.60
2023-04-27T07:10:52.124Z,7.70
2023-04-27T07:11:52.107Z,7.40
2023-04-27T07:12:52.101Z,7.80
2023-04-27T07:13:52.158Z,8.40
2023-04-27T07:14:52.099Z,7.30
2023-04-27T07:15:52.078Z,7.70
2023-04-27T07:16:52.067Z,7.70
2023-04-27T07:17:52.133Z,7.80
2023-04-27T07:18:52.038Z,8.10
2023-04-27T07:19:52.041Z,7.90
2023-04-27T07:20:52.018Z,7.90
2023-04-27T07:21:52.036Z,8.20
2023-04-27T07:22:52.039Z,8.30
2023-04-27T07:23:53.462Z,8.20
2023-04-27T07:24:51.988Z,8.40
2023-04-27T07:25:52.087Z,8.70
2023-04-27T07:26:51.984Z,8.40
2023-04-27T07:27:51.938Z,8.20
2023-04-27T07:28:51.929Z,8.20
2023-04-27T07:29:52.099Z,7.70
2023-04-27T07:30:51.922Z,8.40
2023-04-27T07:31:52.293Z,8.30
2023-04-27T07:32:51.936Z,8.20
2023-04-27T07:33:51.877Z,8.30
2023-04-27T07:34:54.207Z,8.50
2023-04-27T07:35:51.870Z,8.10
2023-04-27T07:36:51.836Z,8.40
2023-04-27T07:37:51.829Z,7.80
2023-04-27T07:38:51.825Z,8.60
2023-04-27T07:39:51.814Z,7.60
2023-04-27T07:40:51.796Z,7.90
2023-04-27T07:41:51.787Z,8.70
2023-04-27T07:42:51.781Z,8.30
2023-04-27T07:43:51.757Z,7.90
2023-04-27T07:44:51.802Z,8.20
2023-04-27T07:45:51.767Z,8.80
2023-04-27T07:46:51.732Z,8.20
2023-04-27T07:47:51.729Z,8.40
2023-04-27T07:48:51.711Z,8.50
2023-04-27T07:49:51.731Z,8.10
2023-04-27T07:50:51.682Z,8.10
2023-04-27T07:51:51.705Z,8.10
2023-04-27T07:52:51.669Z,8.00
2023-04-27T07:53:51.659Z,9.10
2023-04-27T07:54:51.652Z,8.60
2023-04-27T07:55:51.635Z,8.70
2023-04-27T07:56:51.623Z,8.30
2023-04-27T07:57:51.655Z,7.80
2023-04-27T07:58:51.600Z,8.60
2023-04-27T07:59:51.656Z,7.60
2023-04-27T08:00:51.586Z,8.30
2023-04-27T08:01:51.600Z,8.40
2023-04-27T08:02:51.764Z,8.20
2023-04-27T08:03:51.780Z,8.20
2023-04-27T08:04:51.910Z,8.20
2023-04-27T08:05:51.785Z,8.30
2023-04-27T08:06:51.919Z,8.50
2023-04-27T08:07:52.155Z,8.00
2023-04-27T08:08:51.496Z,8.50
2023-04-27T08:09:51.513Z,7.90
2023-04-27T08:10:51.480Z,8.00
2023-04-27T08:11:51.466Z,8.00
2023-04-27T08:12:51.586Z,8.50
2023-04-27T08:13:51.546Z,8.50
2023-04-27T08:14:51.460Z,8.80
2023-04-27T08:15:51.408Z,8.00
2023-04-27T08:16:51.433Z,8.30
2023-04-27T08:17:51.414Z,8.30
2023-04-27T08:18:51.386Z,8.20
2023-04-27T08:19:51.394Z,7.70
2023-04-27T08:20:51.362Z,8.10
2023-04-27T08:21:51.610Z,7.90
2023-04-27T08:22:51.395Z,7.80
2023-04-27T08:23:51.334Z,8.80
2023-04-27T08:24:51.336Z,8.30
2023-04-27T08:25:51.377Z,7.80
2023-04-27T08:26:51.331Z,8.10
2023-04-27T08:27:51.283Z,8.10
2023-04-27T08:28:51.358Z,7.90
2023-04-27T08:29:51.294Z,8.00
2023-04-27T08:30:51.283Z,8.00
2023-04-27T08:31:51.320Z,7.90
2023-04-27T08:32:51.311Z,7.90
2023-04-27T08:33:51.220Z,8.20
2023-04-27T08:34:51.283Z,8.40
2023-04-27T08:35:51.243Z,8.00
2023-04-27T08:36:51.215Z,8.00
2023-04-27T08:37:51.208Z,8.00
2023-04-27T08:38:51.168Z,8.20
2023-04-27T08:39:51.225Z,8.00
2023-04-27T08:40:51.156Z,7.60
2023-04-27T08:41:51.137Z,7.80
2023-04-27T08:42:51.128Z,7.90
2023-04-27T08:43:51.130Z,8.10
2023-04-27T08:44:51.140Z,8.40
2023-04-27T08:45:51.232Z,8.90
2023-04-27T08:46:51.292Z,8.80
2023-04-27T08:47:51.091Z,8.30
2023-04-27T08:48:51.068Z,8.20
2023-04-27T08:49:51.068Z,8.80
2023-04-27T08:50:51.047Z,8.50
2023-04-27T08:51:51.101Z,8.70
2023-04-27T08:52:51.046Z,8.60
2023-04-27T08:53:51.014Z,8.20
2023-04-27T08:54:51.010Z,9.70
2023-04-27T08:55:50.998Z,9.00
2023-04-27T08:56:51.027Z,8.80
2023-04-27T08:57:50.963Z,8.40
2023-04-27T08:58:50.968Z,9.40
2023-04-27T08:59:51.020Z,8.40
2023-04-27T09:00:52.508Z,8.10
2023-04-27T09:01:50.987Z,9.00
2023-04-27T09:02:51.103Z,8.70
2023-04-27T09:03:51.106Z,8.30
2023-04-27T09:04:51.123Z,8.60
2023-04-27T09:06:03.848Z,8.20
2023-04-27T09:06:51.906Z,8.50
2023-04-27T09:07:50.877Z,8.30
2023-04-27T09:08:50.861Z,8.80
2023-04-27T09:09:50.866Z,8.40
2023-04-27T09:10:50.854Z,8.70
2023-04-27T09:11:50.851Z,8.50
2023-04-27T09:12:50.824Z,8.50
2023-04-27T09:13:50.803Z,8.30
2023-04-27T09:14:50.866Z,8.20
2023-04-27T09:15:50.861Z,8.90
2023-04-27T09:16:50.892Z,8.90
2023-04-27T09:17:50.801Z,8.40
2023-04-27T09:18:50.756Z,8.70
2023-04-27T09:19:50.813Z,9.20
2023-04-27T09:20:50.792Z,8.50
2023-04-27T09:21:50.777Z,8.90
2023-04-27T09:22:50.725Z,8.20
2023-04-27T09:23:50.703Z,7.90
2023-04-27T09:24:50.886Z,8.10
2023-04-27T09:25:50.725Z,7.80
2023-04-27T09:26:50.787Z,7.70
2023-04-27T09:27:50.656Z,7.20
2023-04-27T09:28:50.653Z,7.40
2023-04-27T09:29:50.657Z,7.90
2023-04-27T09:30:50.676Z,7.90
2023-04-27T09:31:50.635Z,8.30
2023-04-27T09:32:50.655Z,7.50
2023-04-27T09:33:50.590Z,7.80
2023-04-27T09:34:50.622Z,7.90
2023-04-27T09:35:50.582Z,8.00
2023-04-27T09:36:50.579Z,8.00
2023-04-27T09:37:50.559Z,8.00
2023-04-27T09:38:50.563Z,8.00
2023-04-27T09:39:50.568Z,7.70
2023-04-27T09:40:50.612Z,7.60
2023-04-27T09:41:50.580Z,7.60
2023-04-27T09:42:50.517Z,8.30
2023-04-27T09:43:50.571Z,7.90
2023-04-27T09:44:50.492Z,8.30
2023-04-27T09:45:50.521Z,8.80
2023-04-27T09:46:50.543Z,8.50
2023-04-27T09:47:50.499Z,9.30
2023-04-27T09:48:50.471Z,9.00
2023-04-27T09:49:50.447Z,9.00
2023-04-27T09:50:50.428Z,8.00
2023-04-27T09:51:50.412Z,7.90
2023-04-27T09:52:50.445Z,8.30
2023-04-27T09:53:50.397Z,8.80
2023-04-27T09:54:50.572Z,8.60
2023-04-27T09:55:51.624Z,9.40
2023-04-27T09:56:50.446Z,9.10
2023-04-27T09:57:50.424Z,9.40
2023-04-27T09:58:50.335Z,9.20
2023-04-27T09:59:50.429Z,8.90
2023-04-27T10:00:50.355Z,8.40
2023-04-27T10:01:50.396Z,8.30
2023-04-27T10:02:53.635Z,8.20
2023-04-27T10:03:50.498Z,8.10
2023-04-27T10:04:50.324Z,8.50
2023-04-27T10:05:50.272Z,8.10
2023-04-27T10:06:50.262Z,8.30
2023-04-27T10:07:50.250Z,8.10
2023-04-27T10:08:50.265Z,8.30
2023-04-27T10:09:50.257Z,7.50
2023-04-27T10:10:50.272Z,8.20
2023-04-27T10:11:50.308Z,7.70
2023-04-27T10:12:50.274Z,8.00
2023-04-27T10:13:51.334Z,8.10
2023-04-27T10:14:50.192Z,8.20
2023-04-27T10:15:50.189Z,7.60
2023-04-27T10:16:50.178Z,8.30
2023-04-27T10:17:50.259Z,7.80
2023-04-27T10:18:50.128Z,7.90
2023-04-27T10:19:51.541Z,8.60
2023-04-27T10:20:50.132Z,8.00
2023-04-27T10:21:50.128Z,8.30
2023-04-27T10:22:50.148Z,8.00
2023-04-27T10:23:50.094Z,8.70
2023-04-27T10:24:50.073Z,8.80
2023-04-27T10:25:50.058Z,8.70
2023-04-27T10:26:50.053Z,7.70
2023-04-27T10:27:50.044Z,7.40
2023-04-27T10:28:50.168Z,7.10
2023-04-27T10:29:50.031Z,6.80
2023-04-27T10:30:50.318Z,6.80
2023-04-27T10:31:50.004Z,7.00
2023-04-27T10:32:50.059Z,7.00
2023-04-27T10:33:49.981Z,7.20
2023-04-27T10:34:49.984Z,7.60
2023-04-27T10:35:49.968Z,7.40
2023-04-27T10:36:49.948Z,7.60
2023-04-27T10:37:49.938Z,7.80
2023-04-27T10:38:50.031Z,7.40
2023-04-27T10:39:50.830Z,7.40
2023-04-27T10:40:49.906Z,8.00
2023-04-27T10:41:49.936Z,7.40
2023-04-27T10:42:49.914Z,7.50
2023-04-27T10:43:49.917Z,7.40
2023-04-27T10:44:49.921Z,7.60
2023-04-27T10:45:49.930Z,7.40
2023-04-27T10:46:50.174Z,7.30
2023-04-27T10:47:49.887Z,7.10
2023-04-27T10:48:49.821Z,7.20
2023-04-27T10:49:49.833Z,7.00
2023-04-27T10:50:49.804Z,7.00
2023-04-27T10:51:49.816Z,7.10
2023-04-27T10:52:49.804Z,7.30
2023-04-27T10:53:49.781Z,7.00
2023-04-27T10:54:49.778Z,7.30
2023-04-27T10:55:49.775Z,7.60
2023-04-27T10:56:49.752Z,7.40
2023-04-27T10:57:49.741Z,7.10
2023-04-27T10:58:49.794Z,6.80
2023-04-27T10:59:49.787Z,7.00
2023-04-27T11:00:49.742Z,7.00
2023-04-27T11:01:49.752Z,7.50
2023-04-27T11:02:49.886Z,7.20
2023-04-27T11:03:49.735Z,7.50
2023-04-27T11:04:49.719Z,7.50
2023-04-27T11:05:49.700Z,8.70
2023-04-27T11:06:49.661Z,9.00
2023-04-27T11:07:49.661Z,8.60
2023-04-27T11:08:49.627Z,8.00
2023-04-27T11:09:49.612Z,9.00
2023-04-27T11:10:49.629Z,7.90
2023-04-27T11:11:49.604Z,7.60
2023-04-27T11:12:49.581Z,7.00
2023-04-27T11:13:49.809Z,6.80
2023-04-27T11:14:49.590Z,6.30
2023-04-27T11:15:49.592Z,6.60
2023-04-27T11:16:49.562Z,6.70
2023-04-27T11:17:49.569Z,6.90
2023-04-27T11:18:49.560Z,7.30
2023-04-27T11:19:49.529Z,7.70
2023-04-27T11:20:49.510Z,6.90
2023-04-27T11:21:49.489Z,6.20
2023-04-27T11:22:49.506Z,6.60
2023-04-27T11:23:49.477Z,6.90
2023-04-27T11:24:49.547Z,7.80
2023-04-27T11:25:49.448Z,6.20
2023-04-27T11:26:49.446Z,6.60
2023-04-27T11:27:49.432Z,6.30
2023-04-27T11:28:49.427Z,6.90
2023-04-27T11:29:49.459Z,7.00
2023-04-27T11:30:49.421Z,6.30
2023-04-27T11:31:49.809Z,6.50
2023-04-27T11:32:49.469Z,6.10
2023-04-27T11:33:49.375Z,6.60
2023-04-27T11:34:49.379Z,7.00
2023-04-27T11:35:49.356Z,6.90
2023-04-27T11:36:49.350Z,6.90
2023-04-27T11:37:49.387Z,6.90
2023-04-27T11:38:49.354Z,6.60
2023-04-27T11:39:49.323Z,7.20
2023-04-27T11:40:49.303Z,7.00
2023-04-27T11:41:49.369Z,7.10
2023-04-27T11:42:49.288Z,7.90
2023-04-27T11:43:49.587Z,7.80
2023-04-27T11:44:49.321Z,7.80
2023-04-27T11:45:49.246Z,8.40
2023-04-27T11:46:49.340Z,7.80
2023-04-27T11:47:49.264Z,8.10
2023-04-27T11:48:49.245Z,7.60
2023-04-27T11:49:49.221Z,7.40
2023-04-27T11:50:49.207Z,7.70
2023-04-27T11:51:49.188Z,6.80
2023-04-27T11:52:49.230Z,7.90
2023-04-27T11:53:49.163Z,8.00
2023-04-27T11:54:49.170Z,7.70
2023-04-27T11:55:49.142Z,8.30
2023-04-27T11:56:49.139Z,8.30
2023-04-27T11:57:49.133Z,7.70
2023-04-27T11:58:49.172Z,7.80
2023-04-27T11:59:49.121Z,7.70
2023-04-27T12:00:49.102Z,7.70
2023-04-27T12:01:49.113Z,7.60
2023-04-27T12:02:49.245Z,7.60
2023-04-27T12:03:49.293Z,8.00
2023-04-27T12:04:49.361Z,7.60
2023-04-27T12:05:49.230Z,7.30
2023-04-27T12:06:49.029Z,7.70
2023-04-27T12:07:49.097Z,7.30
2023-04-27T12:08:49.023Z,7.80
2023-04-27T12:09:49.025Z,8.00
2023-04-27T12:10:48.998Z,7.80
2023-04-27T12:11:48.981Z,8.10
2023-04-27T12:12:48.995Z,7.30
2023-04-27T12:13:48.966Z,6.90
2023-04-27T12:14:48.983Z,7.60
2023-04-27T12:15:48.951Z,7.50
2023-04-27T12:16:48.979Z,7.40
2023-04-27T12:17:48.950Z,7.60
2023-04-27T12:18:48.920Z,7.10
2023-04-27T12:19:48.900Z,7.30
2023-04-27T12:20:48.900Z,7.30
2023-04-27T12:21:48.875Z,7.20
2023-04-27T12:22:48.885Z,7.20
2023-04-27T12:23:48.897Z,7.60
2023-04-27T12:24:48.860Z,7.50
2023-04-27T12:25:48.840Z,7.60
2023-04-27T12:26:48.842Z,7.10
2023-04-27T12:27:48.816Z,8.10
2023-04-27T12:28:48.819Z,7.60
2023-04-27T12:29:48.808Z,7.10
2023-04-27T12:30:48.806Z,7.90
2023-04-27T12:31:48.787Z,7.40
2023-04-27T12:32:48.845Z,7.10
2023-04-27T12:33:48.824Z,6.50
2023-04-27T12:34:48.781Z,6.20
2023-04-27T12:35:48.733Z,7.00
2023-04-27T12:36:48.733Z,6.60
2023-04-27T12:37:48.735Z,7.10
2023-04-27T12:38:48.711Z,7.40
2023-04-27T12:39:48.707Z,6.50
2023-04-27T12:40:48.687Z,6.60
2023-04-27T12:41:48.686Z,6.70
2023-04-27T12:42:48.790Z,5.90
2023-04-27T12:43:48.671Z,6.20
2023-04-27T12:44:48.658Z,6.40
2023-04-27T12:45:48.667Z,6.20
2023-04-27T12:46:48.821Z,6.30
2023-04-27T12:48:01.656Z,6.10
2023-04-27T12:48:49.715Z,6.20
2023-04-27T12:49:48.623Z,5.90
2023-04-27T12:50:48.646Z,6.70
2023-04-27T12:51:48.634Z,6.50
2023-04-27T12:52:48.566Z,6.20
2023-04-27T12:53:48.598Z,6.50
2023-04-27T12:54:48.684Z,6.90
2023-04-27T12:55:48.628Z,6.50
2023-04-27T12:56:48.510Z,6.50
2023-04-27T12:57:48.507Z,6.40
2023-04-27T12:58:48.502Z,5.70
2023-04-27T12:59:48.514Z,6.40
2023-04-27T13:00:48.471Z,6.30
2023-04-27T13:01:48.524Z,5.90
2023-04-27T13:02:48.565Z,6.10
2023-04-27T13:03:48.717Z,6.30
2023-04-27T13:04:48.485Z,6.30
2023-04-27T13:05:48.446Z,6.40
2023-04-27T13:06:48.416Z,6.90
2023-04-27T13:07:48.404Z,6.10
2023-04-27T13:08:48.384Z,6.40
2023-04-27T13:09:48.405Z,6.80
2023-04-27T13:10:48.432Z,6.10
2023-04-27T13:11:48.378Z,6.30
2023-04-27T13:12:48.430Z,6.60
2023-04-27T13:13:48.392Z,6.20
2023-04-27T13:14:48.331Z,6.20
2023-04-27T13:15:48.413Z,6.00
2023-04-27T13:16:48.314Z,6.70
2023-04-27T13:17:48.326Z,6.70
2023-04-27T13:18:48.368Z,7.20